sensor_id;sensor_type;location;lat;lon;timestamp;P1;durP1;ratioP1;P2;durP2;ratioP2
62338;SDS011;48368;53.406;6.214;2023-04-19T00:01:24;10.02;;;6.65;;
62338;SDS011;48368;53.406;6.214;2023-04-19T00:03:50;8.65;;;5.82;;
62338;SDS011;48368;53.406;6.214;2023-04-19T00:06:16;10.57;;;7.38;;
62338;SDS011;48368;53.406;6.214;2023-04-19T00:08:42;9.75;;;6.38;;
62338;SDS011;48368;53.406;6.214;2023-04-19T00:11:08;9.55;;;6.53;;
62338;SDS011;48368;53.406;6.214;2023-04-19T00:13:34;10.15;;;6.88;;
62338;SDS011;48368;53.406;6.214;2023-04-19T00:16:00;10.55;;;7.20;;
62338;SDS011;48368;53.406;6.214;2023-04-19T00:18:27;10.57;;;7.22;;
62338;SDS011;48368;53.406;6.214;2023-04-19T00:20:52;12.60;;;7.18;;
62338;SDS011;48368;53.406;6.214;2023-04-19T00:23:18;11.95;;;7.80;;
62338;SDS011;48368;53.406;6.214;2023-04-19T00:25:47;12.70;;;7.75;;
62338;SDS011;48368;53.406;6.214;2023-04-19T00:28:13;11.93;;;8.02;;
62338;SDS011;48368;53.406;6.214;2023-04-19T00:30:39;11.63;;;7.50;;
62338;SDS011;48368;53.406;6.214;2023-04-19T00:33:04;11.10;;;7.68;;
62338;SDS011;48368;53.406;6.214;2023-04-19T00:35:36;12.00;;;7.38;;
62338;SDS011;48368;53.406;6.214;2023-04-19T00:38:08;11.98;;;7.35;;
62338;SDS011;48368;53.406;6.214;2023-04-19T00:40:35;11.88;;;7.95;;
62338;SDS011;48368;53.406;6.214;2023-04-19T00:43:02;11.65;;;8.10;;
62338;SDS011;48368;53.406;6.214;2023-04-19T00:45:27;12.65;;;7.93;;
62338;SDS011;48368;53.406;6.214;2023-04-19T00:47:53;11.55;;;8.13;;
62338;SDS011;48368;53.406;6.214;2023-04-19T00:50:20;13.32;;;8.65;;
62338;SDS011;48368;53.406;6.214;2023-04-19T00:52:46;14.43;;;9.52;;
62338;SDS011;48368;53.406;6.214;2023-04-19T00:55:12;15.57;;;10.73;;
62338;SDS011;48368;53.406;6.214;2023-04-19T00:57:38;19.65;;;10.32;;
62338;SDS011;48368;53.406;6.214;2023-04-19T01:00:05;14.30;;;10.68;;
62338;SDS011;48368;53.406;6.214;2023-04-19T01:02:33;16.05;;;10.65;;
62338;SDS011;48368;53.406;6.214;2023-04-19T01:04:58;15.50;;;10.40;;
62338;SDS011;48368;53.406;6.214;2023-04-19T01:07:24;13.38;;;9.40;;
62338;SDS011;48368;53.406;6.214;2023-04-19T01:09:50;18.08;;;10.45;;
62338;SDS011;48368;53.406;6.214;2023-04-19T01:12:16;16.10;;;11.10;;
62338;SDS011;48368;53.406;6.214;2023-04-19T01:14:41;17.85;;;10.38;;
62338;SDS011;48368;53.406;6.214;2023-04-19T01:17:08;15.75;;;11.25;;
62338;SDS011;48368;53.406;6.214;2023-04-19T01:19:34;17.35;;;11.18;;
62338;SDS011;48368;53.406;6.214;2023-04-19T01:22:02;18.08;;;11.10;;
62338;SDS011;48368;53.406;6.214;2023-04-19T01:24:28;15.77;;;11.15;;
62338;SDS011;48368;53.406;6.214;2023-04-19T01:26:56;16.63;;;11.40;;
62338;SDS011;48368;53.406;6.214;2023-04-19T01:29:21;16.90;;;11.27;;
62338;SDS011;48368;53.406;6.214;2023-04-19T01:31:47;15.23;;;11.45;;
62338;SDS011;48368;53.406;6.214;2023-04-19T01:34:17;16.80;;;10.98;;
62338;SDS011;48368;53.406;6.214;2023-04-19T01:36:44;17.08;;;11.82;;
62338;SDS011;48368;53.406;6.214;2023-04-19T01:39:09;15.27;;;10.55;;
62338;SDS011;48368;53.406;6.214;2023-04-19T01:41:36;16.38;;;11.02;;
62338;SDS011;48368;53.406;6.214;2023-04-19T01:44:01;15.05;;;9.48;;
62338;SDS011;48368;53.406;6.214;2023-04-19T01:46:27;16.92;;;11.60;;
62338;SDS011;48368;53.406;6.214;2023-04-19T01:48:53;19.40;;;10.80;;
62338;SDS011;48368;53.406;6.214;2023-04-19T01:51:18;16.10;;;11.48;;
62338;SDS011;48368;53.406;6.214;2023-04-19T01:53:45;18.75;;;11.50;;
62338;SDS011;48368;53.406;6.214;2023-04-19T01:56:16;16.55;;;11.15;;
62338;SDS011;48368;53.406;6.214;2023-04-19T01:58:42;16.00;;;10.68;;
62338;SDS011;48368;53.406;6.214;2023-04-19T02:01:07;15.27;;;10.93;;
62338;SDS011;48368;53.406;6.214;2023-04-19T02:03:36;16.58;;;10.32;;
62338;SDS011;48368;53.406;6.214;2023-04-19T02:06:09;14.57;;;9.85;;
62338;SDS011;48368;53.406;6.214;2023-04-19T02:08:36;14.52;;;9.60;;
62338;SDS011;48368;53.406;6.214;2023-04-19T02:11:12;15.38;;;10.93;;
62338;SDS011;48368;53.406;6.214;2023-04-19T02:13:41;25.40;;;10.32;;
62338;SDS011;48368;53.406;6.214;2023-04-19T02:16:07;14.18;;;9.50;;
62338;SDS011;48368;53.406;6.214;2023-04-19T02:18:34;15.10;;;9.95;;
62338;SDS011;48368;53.406;6.214;2023-04-19T02:21:02;12.95;;;9.43;;
62338;SDS011;48368;53.406;6.214;2023-04-19T02:23:30;14.50;;;9.18;;
62338;SDS011;48368;53.406;6.214;2023-04-19T02:25:56;15.38;;;9.25;;
62338;SDS011;48368;53.406;6.214;2023-04-19T02:28:22;13.60;;;8.93;;
62338;SDS011;48368;53.406;6.214;2023-04-19T02:30:48;12.75;;;8.68;;
62338;SDS011;48368;53.406;6.214;2023-04-19T02:33:13;13.80;;;8.48;;
62338;SDS011;48368;53.406;6.214;2023-04-19T02:35:39;15.25;;;9.05;;
62338;SDS011;48368;53.406;6.214;2023-04-19T02:38:05;13.32;;;9.18;;
62338;SDS011;48368;53.406;6.214;2023-04-19T02:40:31;14.40;;;9.55;;
62338;SDS011;48368;53.406;6.214;2023-04-19T02:42:57;11.73;;;8.55;;
62338;SDS011;48368;53.406;6.214;2023-04-19T02:45:22;13.90;;;9.43;;
62338;SDS011;48368;53.406;6.214;2023-04-19T02:47:48;16.30;;;8.60;;
62338;SDS011;48368;53.406;6.214;2023-04-19T02:50:14;15.73;;;8.88;;
62338;SDS011;48368;53.406;6.214;2023-04-19T02:52:40;13.15;;;8.93;;
62338;SDS011;48368;53.406;6.214;2023-04-19T02:55:06;13.60;;;8.80;;
62338;SDS011;48368;53.406;6.214;2023-04-19T02:57:32;16.23;;;9.57;;
62338;SDS011;48368;53.406;6.214;2023-04-19T02:59:58;12.02;;;8.45;;
62338;SDS011;48368;53.406;6.214;2023-04-19T03:02:24;15.25;;;8.80;;
62338;SDS011;48368;53.406;6.214;2023-04-19T03:04:50;14.48;;;9.35;;
62338;SDS011;48368;53.406;6.214;2023-04-19T03:07:17;15.35;;;9.10;;
62338;SDS011;48368;53.406;6.214;2023-04-19T03:09:42;12.95;;;8.77;;
62338;SDS011;48368;53.406;6.214;2023-04-19T03:12:08;16.27;;;9.70;;
62338;SDS011;48368;53.406;6.214;2023-04-19T03:14:34;11.95;;;9.07;;
62338;SDS011;48368;53.406;6.214;2023-04-19T03:17:00;12.68;;;8.90;;
62338;SDS011;48368;53.406;6.214;2023-04-19T03:19:25;12.55;;;8.55;;
62338;SDS011;48368;53.406;6.214;2023-04-19T03:21:53;14.13;;;8.55;;
62338;SDS011;48368;53.406;6.214;2023-04-19T03:24:18;12.68;;;8.38;;
62338;SDS011;48368;53.406;6.214;2023-04-19T03:26:53;13.82;;;9.23;;
62338;SDS011;48368;53.406;6.214;2023-04-19T03:29:19;12.68;;;9.30;;
62338;SDS011;48368;53.406;6.214;2023-04-19T03:31:45;10.35;;;7.68;;
62338;SDS011;48368;53.406;6.214;2023-04-19T03:34:11;12.77;;;8.15;;
62338;SDS011;48368;53.406;6.214;2023-04-19T03:36:38;14.63;;;8.35;;
62338;SDS011;48368;53.406;6.214;2023-04-19T03:39:04;10.50;;;8.15;;
62338;SDS011;48368;53.406;6.214;2023-04-19T03:41:30;14.38;;;8.57;;
62338;SDS011;48368;53.406;6.214;2023-04-19T03:43:56;15.82;;;8.52;;
62338;SDS011;48368;53.406;6.214;2023-04-19T03:46:24;13.15;;;8.40;;
62338;SDS011;48368;53.406;6.214;2023-04-19T03:48:50;11.95;;;7.80;;
62338;SDS011;48368;53.406;6.214;2023-04-19T03:51:17;13.68;;;8.57;;
62338;SDS011;48368;53.406;6.214;2023-04-19T03:53:43;12.50;;;8.52;;
62338;SDS011;48368;53.406;6.214;2023-04-19T03:56:09;10.63;;;7.57;;
62338;SDS011;48368;53.406;6.214;2023-04-19T03:58:34;13.93;;;8.13;;
62338;SDS011;48368;53.406;6.214;2023-04-19T04:01:01;11.65;;;7.47;;
62338;SDS011;48368;53.406;6.214;2023-04-19T04:03:27;10.70;;;6.82;;
62338;SDS011;48368;53.406;6.214;2023-04-19T04:05:53;12.95;;;7.97;;
62338;SDS011;48368;53.406;6.214;2023-04-19T04:08:18;15.40;;;7.82;;
62338;SDS011;48368;53.406;6.214;2023-04-19T04:10:44;11.57;;;6.63;;
62338;SDS011;48368;53.406;6.214;2023-04-19T04:13:10;11.70;;;7.85;;
62338;SDS011;48368;53.406;6.214;2023-04-19T04:15:35;11.25;;;6.45;;
62338;SDS011;48368;53.406;6.214;2023-04-19T04:18:01;9.10;;;5.38;;
62338;SDS011;48368;53.406;6.214;2023-04-19T04:20:26;11.32;;;6.68;;
62338;SDS011;48368;53.406;6.214;2023-04-19T04:22:53;14.07;;;5.95;;
62338;SDS011;48368;53.406;6.214;2023-04-19T04:25:19;10.63;;;6.53;;
62338;SDS011;48368;53.406;6.214;2023-04-19T04:27:49;11.27;;;7.10;;
62338;SDS011;48368;53.406;6.214;2023-04-19T04:30:16;9.85;;;6.18;;
62338;SDS011;48368;53.406;6.214;2023-04-19T04:32:41;10.77;;;5.75;;
62338;SDS011;48368;53.406;6.214;2023-04-19T04:35:08;8.77;;;5.55;;
62338;SDS011;48368;53.406;6.214;2023-04-19T04:37:35;9.27;;;5.93;;
62338;SDS011;48368;53.406;6.214;2023-04-19T04:40:02;10.82;;;5.40;;
62338;SDS011;48368;53.406;6.214;2023-04-19T04:42:32;9.68;;;5.05;;
62338;SDS011;48368;53.406;6.214;2023-04-19T04:44:57;8.63;;;5.20;;
62338;SDS011;48368;53.406;6.214;2023-04-19T04:47:29;8.63;;;5.20;;
62338;SDS011;48368;53.406;6.214;2023-04-19T04:49:56;8.85;;;5.65;;
62338;SDS011;48368;53.406;6.214;2023-04-19T04:52:22;9.07;;;6.15;;
62338;SDS011;48368;53.406;6.214;2023-04-19T04:54:48;9.55;;;4.60;;
62338;SDS011;48368;53.406;6.214;2023-04-19T04:57:13;8.05;;;4.85;;
62338;SDS011;48368;53.406;6.214;2023-04-19T04:59:39;12.13;;;6.45;;
62338;SDS011;48368;53.406;6.214;2023-04-19T05:02:05;7.22;;;4.82;;
62338;SDS011;48368;53.406;6.214;2023-04-19T05:04:31;12.32;;;5.28;;
62338;SDS011;48368;53.406;6.214;2023-04-19T05:06:56;9.93;;;5.82;;
62338;SDS011;48368;53.406;6.214;2023-04-19T05:09:22;9.20;;;4.72;;
62338;SDS011;48368;53.406;6.214;2023-04-19T05:11:47;9.30;;;4.35;;
62338;SDS011;48368;53.406;6.214;2023-04-19T05:14:13;8.93;;;4.63;;
62338;SDS011;48368;53.406;6.214;2023-04-19T05:16:39;7.68;;;4.35;;
62338;SDS011;48368;53.406;6.214;2023-04-19T05:19:04;8.40;;;5.45;;
62338;SDS011;48368;53.406;6.214;2023-04-19T05:21:31;7.10;;;4.68;;
62338;SDS011;48368;53.406;6.214;2023-04-19T05:23:58;9.02;;;4.63;;
62338;SDS011;48368;53.406;6.214;2023-04-19T05:26:23;7.85;;;4.38;;
62338;SDS011;48368;53.406;6.214;2023-04-19T05:28:49;8.07;;;4.40;;
62338;SDS011;48368;53.406;6.214;2023-04-19T05:31:15;6.32;;;4.35;;
62338;SDS011;48368;53.406;6.214;2023-04-19T05:33:41;6.97;;;4.53;;
62338;SDS011;48368;53.406;6.214;2023-04-19T05:36:06;7.15;;;4.32;;
62338;SDS011;48368;53.406;6.214;2023-04-19T05:38:32;9.10;;;4.40;;
62338;SDS011;48368;53.406;6.214;2023-04-19T05:40:58;7.70;;;4.22;;
62338;SDS011;48368;53.406;6.214;2023-04-19T05:43:23;7.00;;;4.70;;
62338;SDS011;48368;53.406;6.214;2023-04-19T05:45:49;8.00;;;4.75;;
62338;SDS011;48368;53.406;6.214;2023-04-19T05:48:14;9.02;;;4.82;;
62338;SDS011;48368;53.406;6.214;2023-04-19T05:50:40;7.28;;;4.53;;
62338;SDS011;48368;53.406;6.214;2023-04-19T05:53:06;7.05;;;4.72;;
62338;SDS011;48368;53.406;6.214;2023-04-19T05:55:32;7.43;;;3.72;;
62338;SDS011;48368;53.406;6.214;2023-04-19T05:57:57;8.98;;;4.50;;
62338;SDS011;48368;53.406;6.214;2023-04-19T06:00:23;10.07;;;3.90;;
62338;SDS011;48368;53.406;6.214;2023-04-19T06:02:49;6.55;;;3.70;;
62338;SDS011;48368;53.406;6.214;2023-04-19T06:05:14;8.65;;;3.88;;
62338;SDS011;48368;53.406;6.214;2023-04-19T06:07:40;12.75;;;4.32;;
62338;SDS011;48368;53.406;6.214;2023-04-19T06:10:06;6.78;;;4.18;;
62338;SDS011;48368;53.406;6.214;2023-04-19T06:12:32;5.75;;;3.47;;
62338;SDS011;48368;53.406;6.214;2023-04-19T06:14:58;6.45;;;3.58;;
62338;SDS011;48368;53.406;6.214;2023-04-19T06:17:24;7.10;;;4.13;;
62338;SDS011;48368;53.406;6.214;2023-04-19T06:19:50;6.78;;;3.88;;
62338;SDS011;48368;53.406;6.214;2023-04-19T06:22:17;6.90;;;3.80;;
62338;SDS011;48368;53.406;6.214;2023-04-19T06:24:43;6.97;;;3.05;;
62338;SDS011;48368;53.406;6.214;2023-04-19T06:27:10;6.07;;;3.67;;
62338;SDS011;48368;53.406;6.214;2023-04-19T06:29:35;8.63;;;3.28;;
62338;SDS011;48368;53.406;6.214;2023-04-19T06:32:01;7.32;;;3.67;;
62338;SDS011;48368;53.406;6.214;2023-04-19T06:34:27;8.70;;;4.70;;
62338;SDS011;48368;53.406;6.214;2023-04-19T06:36:53;6.72;;;3.60;;
62338;SDS011;48368;53.406;6.214;2023-04-19T06:39:18;6.13;;;3.15;;
62338;SDS011;48368;53.406;6.214;2023-04-19T06:41:44;5.47;;;3.22;;
62338;SDS011;48368;53.406;6.214;2023-04-19T06:44:10;6.95;;;3.40;;
62338;SDS011;48368;53.406;6.214;2023-04-19T06:46:37;5.47;;;3.13;;
62338;SDS011;48368;53.406;6.214;2023-04-19T06:49:03;6.85;;;3.45;;
62338;SDS011;48368;53.406;6.214;2023-04-19T06:51:29;6.75;;;3.67;;
62338;SDS011;48368;53.406;6.214;2023-04-19T06:53:55;8.15;;;3.17;;
62338;SDS011;48368;53.406;6.214;2023-04-19T06:59:15;5.97;;;3.35;;
62338;SDS011;48368;53.406;6.214;2023-04-19T07:01:43;6.18;;;3.42;;
62338;SDS011;48368;53.406;6.214;2023-04-19T07:04:09;5.28;;;3.13;;
62338;SDS011;48368;53.406;6.214;2023-04-19T07:06:35;5.57;;;3.17;;
62338;SDS011;48368;53.406;6.214;2023-04-19T07:09:02;4.93;;;2.95;;
62338;SDS011;48368;53.406;6.214;2023-04-19T07:11:29;6.85;;;3.20;;
62338;SDS011;48368;53.406;6.214;2023-04-19T07:13:55;6.97;;;3.13;;
62338;SDS011;48368;53.406;6.214;2023-04-19T07:16:21;6.60;;;2.78;;
62338;SDS011;48368;53.406;6.214;2023-04-19T07:18:47;5.53;;;3.00;;
62338;SDS011;48368;53.406;6.214;2023-04-19T07:21:13;8.25;;;3.28;;
62338;SDS011;48368;53.406;6.214;2023-04-19T07:23:39;6.28;;;3.25;;
62338;SDS011;48368;53.406;6.214;2023-04-19T07:26:06;3.92;;;2.53;;
62338;SDS011;48368;53.406;6.214;2023-04-19T07:28:32;4.78;;;2.47;;
62338;SDS011;48368;53.406;6.214;2023-04-19T07:30:58;4.50;;;2.97;;
62338;SDS011;48368;53.406;6.214;2023-04-19T07:33:25;6.03;;;2.42;;
62338;SDS011;48368;53.406;6.214;2023-04-19T07:35:52;6.00;;;2.55;;
62338;SDS011;48368;53.406;6.214;2023-04-19T07:38:18;5.03;;;2.40;;
62338;SDS011;48368;53.406;6.214;2023-04-19T07:40:43;5.55;;;2.45;;
62338;SDS011;48368;53.406;6.214;2023-04-19T07:43:09;5.50;;;2.40;;
62338;SDS011;48368;53.406;6.214;2023-04-19T07:45:35;3.35;;;2.22;;
62338;SDS011;48368;53.406;6.214;2023-04-19T07:48:01;3.42;;;1.92;;
62338;SDS011;48368;53.406;6.214;2023-04-19T07:50:27;4.10;;;2.20;;
62338;SDS011;48368;53.406;6.214;2023-04-19T07:52:53;3.50;;;2.00;;
62338;SDS011;48368;53.406;6.214;2023-04-19T07:55:18;3.92;;;1.83;;
62338;SDS011;48368;53.406;6.214;2023-04-19T07:57:45;4.45;;;1.92;;
62338;SDS011;48368;53.406;6.214;2023-04-19T08:00:18;3.58;;;1.85;;
62338;SDS011;48368;53.406;6.214;2023-04-19T08:02:46;4.60;;;1.80;;
62338;SDS011;48368;53.406;6.214;2023-04-19T08:05:13;3.95;;;2.00;;
62338;SDS011;48368;53.406;6.214;2023-04-19T08:07:43;3.35;;;1.75;;
62338;SDS011;48368;53.406;6.214;2023-04-19T08:10:09;4.60;;;2.03;;
62338;SDS011;48368;53.406;6.214;2023-04-19T08:12:36;11.63;;;4.05;;
62338;SDS011;48368;53.406;6.214;2023-04-19T08:15:05;4.28;;;1.60;;
62338;SDS011;48368;53.406;6.214;2023-04-19T08:17:32;5.43;;;2.17;;
62338;SDS011;48368;53.406;6.214;2023-04-19T08:19:59;9.70;;;2.17;;
62338;SDS011;48368;53.406;6.214;2023-04-19T08:22:29;6.95;;;2.42;;
62338;SDS011;48368;53.406;6.214;2023-04-19T08:24:54;4.03;;;1.90;;
62338;SDS011;48368;53.406;6.214;2023-04-19T08:27:20;6.85;;;2.05;;
62338;SDS011;48368;53.406;6.214;2023-04-19T08:29:46;5.22;;;2.10;;
62338;SDS011;48368;53.406;6.214;2023-04-19T08:32:11;3.85;;;2.10;;
62338;SDS011;48368;53.406;6.214;2023-04-19T08:34:38;3.90;;;1.90;;
62338;SDS011;48368;53.406;6.214;2023-04-19T08:37:04;4.35;;;1.92;;
62338;SDS011;48368;53.406;6.214;2023-04-19T08:39:31;5.60;;;2.08;;
62338;SDS011;48368;53.406;6.214;2023-04-19T08:42:05;5.75;;;2.38;;
62338;SDS011;48368;53.406;6.214;2023-04-19T08:44:33;3.28;;;2.10;;
62338;SDS011;48368;53.406;6.214;2023-04-19T08:46:59;3.50;;;2.00;;
62338;SDS011;48368;53.406;6.214;2023-04-19T08:49:27;4.70;;;1.65;;
62338;SDS011;48368;53.406;6.214;2023-04-19T08:51:54;3.70;;;2.10;;
62338;SDS011;48368;53.406;6.214;2023-04-19T08:54:22;2.88;;;1.48;;
62338;SDS011;48368;53.406;6.214;2023-04-19T08:56:48;5.90;;;1.92;;
62338;SDS011;48368;53.406;6.214;2023-04-19T08:59:14;4.80;;;1.80;;
62338;SDS011;48368;53.406;6.214;2023-04-19T09:01:39;3.95;;;1.63;;
62338;SDS011;48368;53.406;6.214;2023-04-19T09:04:06;4.57;;;1.90;;
62338;SDS011;48368;53.406;6.214;2023-04-19T09:06:39;6.20;;;1.80;;
62338;SDS011;48368;53.406;6.214;2023-04-19T09:11:41;4.97;;;2.15;;
62338;SDS011;48368;53.406;6.214;2023-04-19T09:14:08;3.42;;;1.95;;
62338;SDS011;48368;53.406;6.214;2023-04-19T09:16:35;6.70;;;2.20;;
62338;SDS011;48368;53.406;6.214;2023-04-19T09:19:04;5.18;;;2.00;;
62338;SDS011;48368;53.406;6.214;2023-04-19T09:21:31;4.20;;;1.77;;
62338;SDS011;48368;53.406;6.214;2023-04-19T09:23:58;4.82;;;2.00;;
62338;SDS011;48368;53.406;6.214;2023-04-19T09:26:24;7.90;;;2.05;;
62338;SDS011;48368;53.406;6.214;2023-04-19T09:33:56;5.28;;;2.20;;
62338;SDS011;48368;53.406;6.214;2023-04-19T09:36:28;8.38;;;2.03;;
62338;SDS011;48368;53.406;6.214;2023-04-19T09:38:55;7.15;;;2.60;;
62338;SDS011;48368;53.406;6.214;2023-04-19T09:41:21;5.05;;;2.15;;
62338;SDS011;48368;53.406;6.214;2023-04-19T09:43:48;6.80;;;2.50;;
62338;SDS011;48368;53.406;6.214;2023-04-19T09:46:30;8.18;;;3.40;;
62338;SDS011;48368;53.406;6.214;2023-04-19T09:51:42;6.00;;;2.45;;
62338;SDS011;48368;53.406;6.214;2023-04-19T09:54:09;7.60;;;2.25;;
62338;SDS011;48368;53.406;6.214;2023-04-19T09:56:35;8.20;;;1.85;;
62338;SDS011;48368;53.406;6.214;2023-04-19T09:59:02;5.60;;;1.80;;
62338;SDS011;48368;53.406;6.214;2023-04-19T10:01:28;6.28;;;1.80;;
62338;SDS011;48368;53.406;6.214;2023-04-19T10:03:58;5.47;;;1.80;;
62338;SDS011;48368;53.406;6.214;2023-04-19T10:06:24;3.95;;;1.60;;
62338;SDS011;48368;53.406;6.214;2023-04-19T10:08:52;5.72;;;1.60;;
62338;SDS011;48368;53.406;6.214;2023-04-19T10:11:19;4.78;;;1.70;;
62338;SDS011;48368;53.406;6.214;2023-04-19T10:13:46;4.80;;;1.77;;
62338;SDS011;48368;53.406;6.214;2023-04-19T10:16:13;9.18;;;2.10;;
62338;SDS011;48368;53.406;6.214;2023-04-19T10:18:39;9.20;;;1.60;;
62338;SDS011;48368;53.406;6.214;2023-04-19T10:21:06;4.25;;;1.58;;
62338;SDS011;48368;53.406;6.214;2023-04-19T10:23:40;4.35;;;1.13;;
62338;SDS011;48368;53.406;6.214;2023-04-19T10:26:06;2.75;;;1.17;;
62338;SDS011;48368;53.406;6.214;2023-04-19T10:28:31;2.22;;;1.13;;
62338;SDS011;48368;53.406;6.214;2023-04-19T10:31:01;4.40;;;1.40;;
62338;SDS011;48368;53.406;6.214;2023-04-19T10:33:29;4.93;;;0.90;;
62338;SDS011;48368;53.406;6.214;2023-04-19T10:35:58;6.35;;;1.67;;
62338;SDS011;48368;53.406;6.214;2023-04-19T10:41:19;4.78;;;1.80;;
62338;SDS011;48368;53.406;6.214;2023-04-19T10:43:47;2.70;;;1.33;;
62338;SDS011;48368;53.406;6.214;2023-04-19T10:49:00;4.57;;;1.23;;
62338;SDS011;48368;53.406;6.214;2023-04-19T10:51:33;3.15;;;1.20;;
62338;SDS011;48368;53.406;6.214;2023-04-19T10:54:04;4.25;;;1.05;;
62338;SDS011;48368;53.406;6.214;2023-04-19T11:01:35;6.00;;;1.40;;
62338;SDS011;48368;53.406;6.214;2023-04-19T11:04:13;7.78;;;2.42;;
62338;SDS011;48368;53.406;6.214;2023-04-19T11:09:27;8.57;;;1.92;;
62338;SDS011;48368;53.406;6.214;2023-04-19T11:12:13;7.25;;;1.70;;
62338;SDS011;48368;53.406;6.214;2023-04-19T11:14:40;6.75;;;1.60;;
62338;SDS011;48368;53.406;6.214;2023-04-19T11:17:20;9.88;;;1.60;;
62338;SDS011;48368;53.406;6.214;2023-04-19T11:19:56;7.97;;;1.60;;
62338;SDS011;48368;53.406;6.214;2023-04-19T11:22:23;5.07;;;1.40;;
62338;SDS011;48368;53.406;6.214;2023-04-19T11:25:03;6.95;;;1.80;;
62338;SDS011;48368;53.406;6.214;2023-04-19T11:27:36;4.38;;;1.75;;
62338;SDS011;48368;53.406;6.214;2023-04-19T11:30:13;4.18;;;1.60;;
62338;SDS011;48368;53.406;6.214;2023-04-19T11:32:53;6.93;;;2.00;;
62338;SDS011;48368;53.406;6.214;2023-04-19T11:35:24;5.28;;;1.90;;
62338;SDS011;48368;53.406;6.214;2023-04-19T11:37:51;9.98;;;2.00;;
62338;SDS011;48368;53.406;6.214;2023-04-19T11:40:18;4.38;;;2.25;;
62338;SDS011;48368;53.406;6.214;2023-04-19T11:42:45;7.50;;;2.42;;
62338;SDS011;48368;53.406;6.214;2023-04-19T11:45:24;7.57;;;2.03;;
62338;SDS011;48368;53.406;6.214;2023-04-19T11:47:57;8.25;;;2.33;;
62338;SDS011;48368;53.406;6.214;2023-04-19T11:53:01;7.50;;;2.22;;
62338;SDS011;48368;53.406;6.214;2023-04-19T11:55:36;5.95;;;2.22;;
62338;SDS011;48368;53.406;6.214;2023-04-19T11:58:02;8.43;;;2.30;;
62338;SDS011;48368;53.406;6.214;2023-04-19T12:00:33;5.75;;;2.55;;
62338;SDS011;48368;53.406;6.214;2023-04-19T12:02:59;9.15;;;2.83;;
62338;SDS011;48368;53.406;6.214;2023-04-19T12:05:25;9.52;;;2.92;;
62338;SDS011;48368;53.406;6.214;2023-04-19T12:08:00;6.63;;;2.55;;
62338;SDS011;48368;53.406;6.214;2023-04-19T12:10:27;8.73;;;3.15;;
62338;SDS011;48368;53.406;6.214;2023-04-19T12:12:53;8.63;;;2.70;;
62338;SDS011;48368;53.406;6.214;2023-04-19T12:15:19;6.22;;;2.83;;
62338;SDS011;48368;53.406;6.214;2023-04-19T12:17:55;19.58;;;3.75;;
62338;SDS011;48368;53.406;6.214;2023-04-19T12:20:31;7.63;;;2.80;;
62338;SDS011;48368;53.406;6.214;2023-04-19T12:23:04;5.60;;;3.35;;
62338;SDS011;48368;53.406;6.214;2023-04-19T12:25:31;8.73;;;3.13;;
62338;SDS011;48368;53.406;6.214;2023-04-19T12:28:01;10.57;;;3.58;;
62338;SDS011;48368;53.406;6.214;2023-04-19T12:30:27;6.88;;;3.63;;
62338;SDS011;48368;53.406;6.214;2023-04-19T12:32:53;7.50;;;3.72;;
62338;SDS011;48368;53.406;6.214;2023-04-19T12:35:29;8.35;;;3.40;;
62338;SDS011;48368;53.406;6.214;2023-04-19T12:37:55;7.45;;;3.70;;
62338;SDS011;48368;53.406;6.214;2023-04-19T12:40:22;7.95;;;3.63;;
62338;SDS011;48368;53.406;6.214;2023-04-19T12:42:48;8.35;;;3.90;;
62338;SDS011;48368;53.406;6.214;2023-04-19T12:45:15;7.82;;;3.35;;
62338;SDS011;48368;53.406;6.214;2023-04-19T12:47:41;11.88;;;3.78;;
62338;SDS011;48368;53.406;6.214;2023-04-19T12:50:08;7.10;;;3.55;;
62338;SDS011;48368;53.406;6.214;2023-04-19T12:52:34;6.70;;;3.35;;
62338;SDS011;48368;53.406;6.214;2023-04-19T12:55:00;8.50;;;3.50;;
62338;SDS011;48368;53.406;6.214;2023-04-19T12:57:26;10.82;;;3.92;;
62338;SDS011;48368;53.406;6.214;2023-04-19T12:59:52;10.18;;;3.80;;
62338;SDS011;48368;53.406;6.214;2023-04-19T13:02:17;6.68;;;3.75;;
62338;SDS011;48368;53.406;6.214;2023-04-19T13:04:43;8.32;;;4.18;;
62338;SDS011;48368;53.406;6.214;2023-04-19T13:07:09;7.53;;;4.00;;
62338;SDS011;48368;53.406;6.214;2023-04-19T13:09:34;7.82;;;3.97;;
62338;SDS011;48368;53.406;6.214;2023-04-19T13:12:00;7.10;;;3.72;;
62338;SDS011;48368;53.406;6.214;2023-04-19T13:14:26;9.88;;;4.10;;
62338;SDS011;48368;53.406;6.214;2023-04-19T13:16:52;9.00;;;3.83;;
62338;SDS011;48368;53.406;6.214;2023-04-19T13:19:18;8.70;;;3.92;;
62338;SDS011;48368;53.406;6.214;2023-04-19T13:21:44;10.48;;;3.88;;
62338;SDS011;48368;53.406;6.214;2023-04-19T13:24:10;10.90;;;4.28;;
62338;SDS011;48368;53.406;6.214;2023-04-19T13:26:37;7.40;;;4.43;;
62338;SDS011;48368;53.406;6.214;2023-04-19T13:29:03;9.40;;;4.15;;
62338;SDS011;48368;53.406;6.214;2023-04-19T13:31:29;9.27;;;4.18;;
62338;SDS011;48368;53.406;6.214;2023-04-19T13:33:55;11.35;;;4.95;;
62338;SDS011;48368;53.406;6.214;2023-04-19T13:36:21;7.78;;;4.50;;
62338;SDS011;48368;53.406;6.214;2023-04-19T13:38:47;10.13;;;4.40;;
62338;SDS011;48368;53.406;6.214;2023-04-19T13:41:13;8.65;;;4.47;;
62338;SDS011;48368;53.406;6.214;2023-04-19T13:43:38;10.25;;;4.85;;
62338;SDS011;48368;53.406;6.214;2023-04-19T13:46:04;8.10;;;3.85;;
62338;SDS011;48368;53.406;6.214;2023-04-19T13:48:30;14.07;;;4.53;;
62338;SDS011;48368;53.406;6.214;2023-04-19T13:50:56;12.75;;;4.93;;
62338;SDS011;48368;53.406;6.214;2023-04-19T13:53:23;9.50;;;3.85;;
62338;SDS011;48368;53.406;6.214;2023-04-19T13:55:50;9.50;;;3.70;;
62338;SDS011;48368;53.406;6.214;2023-04-19T13:58:17;7.90;;;3.95;;
62338;SDS011;48368;53.406;6.214;2023-04-19T14:00:43;9.02;;;3.75;;
62338;SDS011;48368;53.406;6.214;2023-04-19T14:03:09;8.88;;;4.03;;
62338;SDS011;48368;53.406;6.214;2023-04-19T14:05:35;10.40;;;4.68;;
62338;SDS011;48368;53.406;6.214;2023-04-19T14:08:00;15.07;;;4.53;;
62338;SDS011;48368;53.406;6.214;2023-04-19T14:10:26;11.05;;;4.20;;
62338;SDS011;48368;53.406;6.214;2023-04-19T14:12:52;12.82;;;4.70;;
62338;SDS011;48368;53.406;6.214;2023-04-19T14:15:18;16.52;;;4.40;;
62338;SDS011;48368;53.406;6.214;2023-04-19T14:17:44;9.85;;;4.18;;
62338;SDS011;48368;53.406;6.214;2023-04-19T14:20:14;10.13;;;4.20;;
62338;SDS011;48368;53.406;6.214;2023-04-19T14:22:44;11.48;;;3.50;;
62338;SDS011;48368;53.406;6.214;2023-04-19T14:25:10;8.15;;;3.30;;
62338;SDS011;48368;53.406;6.214;2023-04-19T14:27:39;8.18;;;3.63;;
62338;SDS011;48368;53.406;6.214;2023-04-19T14:30:05;8.80;;;3.30;;
62338;SDS011;48368;53.406;6.214;2023-04-19T14:32:31;9.30;;;3.30;;
62338;SDS011;48368;53.406;6.214;2023-04-19T14:34:57;8.18;;;2.90;;
62338;SDS011;48368;53.406;6.214;2023-04-19T14:37:23;8.23;;;3.28;;
62338;SDS011;48368;53.406;6.214;2023-04-19T14:39:50;5.40;;;2.20;;
62338;SDS011;48368;53.406;6.214;2023-04-19T14:42:16;10.15;;;2.50;;
62338;SDS011;48368;53.406;6.214;2023-04-19T14:44:41;8.23;;;2.28;;
62338;SDS011;48368;53.406;6.214;2023-04-19T14:47:07;6.95;;;2.20;;
62338;SDS011;48368;53.406;6.214;2023-04-19T14:49:33;8.55;;;1.73;;
62338;SDS011;48368;53.406;6.214;2023-04-19T14:51:59;7.30;;;1.83;;
62338;SDS011;48368;53.406;6.214;2023-04-19T14:54:24;7.45;;;1.60;;
62338;SDS011;48368;53.406;6.214;2023-04-19T14:56:50;7.60;;;1.92;;
62338;SDS011;48368;53.406;6.214;2023-04-19T14:59:16;7.05;;;2.20;;
62338;SDS011;48368;53.406;6.214;2023-04-19T15:01:42;7.15;;;1.58;;
62338;SDS011;48368;53.406;6.214;2023-04-19T15:04:08;5.03;;;1.40;;
62338;SDS011;48368;53.406;6.214;2023-04-19T15:06:33;3.38;;;1.52;;
62338;SDS011;48368;53.406;6.214;2023-04-19T15:08:59;4.18;;;1.60;;